Time;durP1;ratioP1;P1;durP2;ratioP2;P2;SDS_P1;SDS_P2;PMS_P1;PMS_P2;Temp;Humidity;BMP_temperature;BMP_pressure;BME280_temperature;BME280_humidity;BME280_pressure;Samples;Min_cycle;Max_cycle;Signal;HPM_P1;HPM_P2
2022/02/03 00:02:25;;;;;;;9.00;7.72;;;6.90;99.90;;;;;;4970994;28;20106;-73
2022/02/03 00:05:02;;;;;;;10.15;8.10;;;6.90;99.90;;;;;;4971570;28;20027;-74
2022/02/03 00:07:48;;;;;;;11.98;9.05;;;6.80;99.90;;;;;;4972931;28;20046;-73
2022/02/03 00:26:33;;;;;;;12.55;8.30;;;6.90;99.90;;;;;;4975041;28;20395;-75
2022/02/03 00:29:02;;;;;;;12.82;9.43;;;6.90;99.90;;;;;;4976647;28;20026;-74
2022/02/03 00:31:45;;;;;;;10.40;8.52;;;6.90;99.90;;;;;;4976275;28;20030;-72
2022/02/03 00:34:25;;;;;;;11.65;8.23;;;6.90;99.90;;;;;;4975121;28;20024;-74
2022/02/03 00:37:28;;;;;;;12.48;8.68;;;6.90;99.90;;;;;;4974368;28;20023;-73
2022/02/03 00:51:01;;;;;;;10.25;9.23;;;6.80;99.90;;;;;;4961882;28;20146;-76
2022/02/03 00:53:27;;;;;;;12.93;9.88;;;6.80;99.90;;;;;;4951619;29;20027;-74
2022/02/03 00:56:01;;;;;;;17.15;9.48;;;6.80;99.90;;;;;;4960542;28;20058;-74
2022/02/03 00:58:30;;;;;;;11.75;10.13;;;6.80;99.90;;;;;;4966023;28;20030;-76
2022/02/03 01:00:58;;;;;;;11.27;10.00;;;6.90;99.90;;;;;;4974658;28;20035;-74
2022/02/03 01:03:29;;;;;;;10.73;9.10;;;6.80;99.90;;;;;;4988486;28;20019;-73
2022/02/03 01:05:58;;;;;;;12.23;9.55;;;6.80;99.90;;;;;;4978747;28;20093;-73
2022/02/03 01:08:27;;;;;;;11.77;9.55;;;6.90;99.90;;;;;;4977343;28;20023;-73
2022/02/03 01:11:09;;;;;;;15.50;9.60;;;6.90;99.90;;;;;;4977809;28;20070;-73
2022/02/03 01:16:46;;;;;;;15.15;10.88;;;6.90;99.90;;;;;;4966981;28;20027;-73
2022/02/03 01:19:30;;;;;;;10.00;9.00;;;6.90;99.90;;;;;;4969408;28;20077;-73
2022/02/03 01:43:38;;;;;;;11.15;10.05;;;7.20;99.90;;;;;;4991569;28;20038;-72
2022/02/03 01:46:16;;;;;;;16.60;10.45;;;7.10;99.90;;;;;;4970712;28;20067;-73
2022/02/03 01:54:06;;;;;;;12.07;10.77;;;7.00;99.90;;;;;;4974750;28;20085;-73
2022/02/03 01:56:38;;;;;;;13.65;11.82;;;7.00;99.90;;;;;;4975524;28;20495;-72
2022/02/03 01:59:18;;;;;;;12.30;9.60;;;7.00;99.90;;;;;;4971522;28;20069;-73
2022/02/03 02:01:47;;;;;;;12.45;9.98;;;7.10;99.90;;;;;;4971448;28;20050;-73
2022/02/03 02:04:37;;;;;;;12.40;10.35;;;7.10;99.90;;;;;;4972343;28;20042;-73
2022/02/03 02:07:30;;;;;;;10.87;9.77;;;7.00;99.90;;;;;;4962459;28;20110;-73
2022/02/03 02:12:49;;;;;;;13.32;10.50;;;6.90;99.90;;;;;;4974119;28;20093;-73
2022/02/03 02:42:39;;;;;;;15.77;11.57;;;6.90;99.90;;;;;;4969506;28;20394;-73
2022/02/03 02:45:09;;;;;;;12.10;10.65;;;6.90;99.90;;;;;;4976749;28;20461;-73
2022/02/03 02:47:58;;;;;;;13.43;11.25;;;7.00;99.90;;;;;;4982647;28;20038;-73
2022/02/03 02:50:40;;;;;;;12.10;10.40;;;7.00;99.90;;;;;;4974629;28;20121;-73
2022/02/03 02:53:25;;;;;;;12.25;10.52;;;6.90;99.90;;;;;;4974241;28;20027;-73
2022/02/03 02:56:17;;;;;;;12.55;11.07;;;7.00;99.90;;;;;;4973343;28;20483;-73
2022/02/03 03:30:05;;;;;;;10.75;9.27;;;7.10;99.90;;;;;;4978119;28;20053;-73
2022/02/03 03:35:33;;;;;;;12.90;11.20;;;7.00;99.90;;;;;;4980667;28;20025;-73
2022/02/03 03:38:00;;;;;;;12.18;10.85;;;7.00;99.90;;;;;;4976041;28;20611;-73
2022/02/03 03:40:29;;;;;;;10.60;9.65;;;7.00;99.90;;;;;;4978477;28;20077;-72
2022/02/03 03:43:07;;;;;;;12.02;10.23;;;7.00;99.90;;;;;;4978266;28;20053;-72
2022/02/03 03:45:34;;;;;;;11.50;9.63;;;7.00;99.90;;;;;;4977344;28;20490;-74
2022/02/03 03:48:02;;;;;;;10.45;9.15;;;7.00;99.90;;;;;;4974657;28;20045;-72
2022/02/03 03:50:29;;;;;;;14.38;10.98;;;7.00;99.90;;;;;;4977720;28;20023;-73
2022/02/03 03:53:03;;;;;;;9.70;8.65;;;7.00;99.90;;;;;;4982112;28;20043;-73
2022/02/03 03:55:46;;;;;;;11.07;9.45;;;6.90;99.90;;;;;;4981919;28;20494;-72
2022/02/03 04:36:49;;;;;;;5.88;4.85;;;7.30;99.90;;;;;;4971656;28;20418;-75
2022/02/03 04:45:56;;;;;;;5.45;4.93;;;7.30;99.90;;;;;;4969109;28;20090;-73
2022/02/03 04:54:50;;;;;;;5.65;5.15;;;7.40;99.90;;;;;;4975521;28;20042;-73
2022/02/03 05:03:25;;;;;;;6.95;6.25;;;7.50;99.90;;;;;;4975957;28;20030;-73
2022/02/03 05:06:26;;;;;;;5.57;5.07;;;7.60;99.90;;;;;;4976150;28;20509;-74
2022/02/03 05:12:37;;;;;;;5.32;4.80;;;7.50;99.90;;;;;;4973786;28;20377;-73
2022/02/03 05:15:47;;;;;;;5.05;4.65;;;7.40;99.90;;;;;;4972302;28;20038;-73
2022/02/03 05:19:17;;;;;;;5.43;4.93;;;7.40;99.90;;;;;;4972860;28;20081;-73
2022/02/03 05:25:14;;;;;;;6.13;5.53;;;7.30;99.90;;;;;;4976071;28;20118;-73
2022/02/03 05:35:05;;;;;;;6.85;5.38;;;7.30;99.90;;;;;;4976446;28;20069;-73
2022/02/03 05:54:52;;;;;;;6.10;5.60;;;7.10;99.90;;;;;;4976809;28;20034;-74
2022/02/03 06:03:17;;;;;;;5.88;5.30;;;7.20;99.90;;;;;;4976406;28;20062;-73
2022/02/03 06:13:40;;;;;;;7.18;6.13;;;7.00;99.90;;;;;;4979381;28;20085;-74
2022/02/03 06:21:41;;;;;;;8.65;5.95;;;7.00;99.90;;;;;;4975438;28;20059;-74
2022/02/03 06:24:16;;;;;;;8.40;7.45;;;7.00;99.90;;;;;;4958832;28;20035;-73
2022/02/03 06:29:29;;;;;;;8.85;6.93;;;7.20;99.90;;;;;;4976967;28;20513;-73
2022/02/03 06:31:55;;;;;;;9.73;8.30;;;7.20;99.90;;;;;;4980622;28;20035;-72
2022/02/03 06:34:22;;;;;;;8.93;7.60;;;7.30;99.90;;;;;;4977192;28;20069;-73
2022/02/03 06:36:50;;;;;;;9.63;7.38;;;7.20;99.90;;;;;;4973691;28;20029;-73
2022/02/03 06:39:21;;;;;;;9.70;7.38;;;7.30;99.90;;;;;;4971125;28;20034;-73
2022/02/03 06:41:53;;;;;;;;;;;7.40;99.90;;;;;;4974958;28;20027;-73
2022/02/03 06:44:21;;;;;;;9.65;6.47;;;7.40;99.90;;;;;;4975833;28;19910;-73
2022/02/03 06:46:50;;;;;;;6.93;6.30;;;7.50;99.90;;;;;;4973310;28;20038;-74
2022/02/03 06:52:10;;;;;;;6.00;5.40;;;7.50;99.90;;;;;;4974392;28;20023;-76
2022/02/03 06:54:43;;;;;;;7.15;6.45;;;7.50;99.90;;;;;;4971406;28;20436;-75
2022/02/03 06:57:16;;;;;;;6.75;6.15;;;7.50;99.90;;;;;;4975459;28;20069;-76
2022/02/03 06:59:57;;;;;;;5.80;5.30;;;7.60;99.90;;;;;;4976386;28;20110;-75
2022/02/03 07:02:26;;;;;;;;;;;7.60;99.90;;;;;;4971530;28;20450;-76
2022/02/03 07:04:52;;;;;;;4.88;4.38;;;7.60;99.90;;;;;;4976261;28;19914;-76
2022/02/03 07:07:18;;;;;;;5.28;4.78;;;7.60;99.90;;;;;;4977463;28;20027;-76
2022/02/03 07:09:48;;;;;;;5.47;4.63;;;7.60;99.90;;;;;;4977094;28;20115;-77
2022/02/03 07:12:14;;;;;;;9.43;4.88;;;7.60;99.90;;;;;;4975014;28;20388;-75
2022/02/03 07:14:39;;;;;;;5.50;4.97;;;7.60;99.90;;;;;;4976357;28;20023;-75
2022/02/03 07:17:05;;;;;;;7.20;5.53;;;7.50;99.90;;;;;;4977958;28;20492;-75
2022/02/03 07:19:35;;;;;;;5.13;4.68;;;7.50;99.90;;;;;;4966463;28;20049;-76
2022/02/03 07:22:00;;;;;;;6.40;4.90;;;7.60;99.90;;;;;;4975295;28;20033;-75
2022/02/03 07:24:26;;;;;;;5.68;5.18;;;7.60;99.90;;;;;;4977921;28;20027;-76
2022/02/03 07:26:51;;;;;;;6.88;5.95;;;7.60;99.90;;;;;;4987032;28;20118;-76
2022/02/03 07:29:17;;;;;;;5.30;4.80;;;7.60;99.90;;;;;;4966721;28;20030;-75
2022/02/03 07:31:43;;;;;;;4.72;4.32;;;7.70;99.90;;;;;;4972783;28;20066;-76
2022/02/03 07:34:13;;;;;;;5.30;4.80;;;7.70;99.90;;;;;;4968063;28;20106;-75
2022/02/03 07:36:39;;;;;;;6.30;5.22;;;7.70;99.90;;;;;;4972376;28;20015;-75
2022/02/03 07:39:06;;;;;;;10.32;5.32;;;7.70;99.90;;;;;;4967003;28;20043;-74
2022/02/03 07:41:32;;;;;;;6.00;4.65;;;7.70;99.90;;;;;;4966238;28;20019;-76
2022/02/03 07:43:58;;;;;;;4.85;4.38;;;7.80;99.90;;;;;;4968812;28;20077;-76
2022/02/03 07:46:24;;;;;;;5.05;4.47;;;7.80;99.90;;;;;;4975210;28;20467;-76
2022/02/03 07:48:52;;;;;;;5.47;4.25;;;7.80;99.90;;;;;;4971019;28;20054;-76
2022/02/03 07:51:18;;;;;;;4.45;4.05;;;7.80;99.90;;;;;;4983319;28;20011;-75
2022/02/03 07:53:44;;;;;;;4.50;4.10;;;7.90;99.90;;;;;;4981197;28;20070;-76
2022/02/03 07:56:09;;;;;;;4.82;4.03;;;7.90;99.90;;;;;;4967420;28;20027;-76
2022/02/03 07:58:35;;;;;;;4.20;3.80;;;8.00;99.90;;;;;;4970426;28;20027;-76
2022/02/03 08:01:01;;;;;;;5.05;3.75;;;8.00;99.90;;;;;;4970516;28;20363;-75
2022/02/03 08:03:27;;;;;;;3.55;3.25;;;8.00;99.90;;;;;;4972657;28;20027;-73
2022/02/03 08:05:59;;;;;;;3.78;3.47;;;8.10;99.90;;;;;;4970639;28;20098;-73
2022/02/03 08:08:31;;;;;;;4.15;3.30;;;8.20;99.90;;;;;;4968946;28;20027;-74
2022/02/03 08:11:01;;;;;;;3.40;3.10;;;8.30;99.90;;;;;;4973704;28;20383;-75
2022/02/03 08:16:09;;;;;;;3.10;2.85;;;8.30;99.90;;;;;;4974466;28;20401;-76
2022/02/03 08:18:35;;;;;;;4.65;2.88;;;8.30;99.90;;;;;;4974051;28;20019;-72
2022/02/03 08:21:05;;;;;;;3.25;2.95;;;8.30;99.90;;;;;;4974417;28;20031;-75
2022/02/03 08:26:08;;;;;;;3.35;3.05;;;8.40;99.90;;;;;;4972091;28;20042;-75
2022/02/03 08:28:54;;;;;;;4.18;3.88;;;8.40;99.90;;;;;;4959546;28;20042;-75
2022/02/03 08:31:24;;;;;;;3.60;3.22;;;8.40;99.90;;;;;;4973001;28;20054;-74
2022/02/03 08:33:52;;;;;;;4.55;3.63;;;8.50;99.90;;;;;;4986477;28;20091;-74
2022/02/03 08:36:20;;;;;;;3.83;3.50;;;8.60;99.90;;;;;;4984127;28;20119;-75
2022/02/03 08:38:48;;;;;;;4.07;3.67;;;8.70;99.90;;;;;;4966667;28;20026;-75
2022/02/03 08:41:14;;;;;;;3.50;3.20;;;8.80;99.90;;;;;;4969963;28;20042;-75
2022/02/03 08:43:42;;;;;;;4.60;4.05;;;8.80;99.90;;;;;;4969423;28;20031;-75
2022/02/03 08:46:10;;;;;;;4.30;3.55;;;8.90;99.90;;;;;;4963605;28;20117;-75
2022/02/03 08:48:36;;;;;;;5.20;3.70;;;9.10;99.90;;;;;;4967417;28;20031;-75
2022/02/03 08:51:06;;;;;;;4.53;3.92;;;9.20;99.90;;;;;;4976173;28;20023;-75
2022/02/03 08:53:37;;;;;;;5.63;4.15;;;9.20;99.90;;;;;;4988722;28;20050;-74
2022/02/03 08:56:25;;;;;;;4.60;3.92;;;9.20;99.90;;;;;;4994758;28;20011;-75
2022/02/03 09:37:14;;;;;;;3.05;1.80;;;9.80;99.90;;;;;;4971351;28;20029;-74
2022/02/03 09:51:37;;;;;;;2.30;2.10;;;9.80;99.90;;;;;;4999378;28;20034;-75
2022/02/03 09:58:41;;;;;;;1.67;1.58;;;9.90;99.90;;;;;;4986567;28;20061;-73
2022/02/03 10:01:16;;;;;;;1.90;1.80;;;9.80;99.90;;;;;;4983461;28;20030;-75
2022/02/03 10:06:19;;;;;;;2.78;2.00;;;9.90;99.90;;;;;;4970085;28;20053;-75
2022/02/03 10:08:49;;;;;;;1.50;1.40;;;10.00;99.90;;;;;;4982050;28;20031;-76
2022/02/03 10:11:33;;;;;;;2.97;1.60;;;10.00;99.90;;;;;;4979643;28;20063;-75
2022/02/03 10:14:02;;;;;;;3.35;2.50;;;10.10;99.90;;;;;;4977468;28;20034;-75
2022/02/03 10:16:33;;;;;;;1.50;1.40;;;10.20;99.90;;;;;;4971551;28;20026;-75
2022/02/03 10:19:09;;;;;;;1.50;1.40;;;10.10;99.90;;;;;;4988782;28;20034;-75
2022/02/03 10:21:35;;;;;;;1.63;1.52;;;10.00;99.90;;;;;;4978742;28;20049;-75
2022/02/03 10:24:03;;;;;;;2.08;1.50;;;10.00;99.90;;;;;;4975612;28;20026;-75
2022/02/03 10:26:44;;;;;;;1.42;1.30;;;10.10;99.90;;;;;;4967103;28;20023;-75
2022/02/03 10:29:37;;;;;;;1.60;1.45;;;10.10;99.90;;;;;;4968444;28;20065;-75
2022/02/03 10:32:08;;;;;;;1.95;1.85;;;10.10;99.90;;;;;;4971177;28;20086;-75
2022/02/03 10:34:39;;;;;;;;;;;10.20;99.90;;;;;;4965446;28;20092;-74
2022/02/03 10:37:25;;;;;;;1.42;1.17;;;10.50;99.90;;;;;;4970596;28;20362;-76
2022/02/03 10:40:21;;;;;;;2.38;1.77;;;10.40;99.90;;;;;;4965874;28;20395;-77
2022/02/03 10:56:29;;;;;;;3.50;1.17;;;11.00;99.90;;;;;;4932518;29;20031;-77
2022/02/03 11:01:51;;;;;;;1.40;1.00;;;10.70;99.90;;;;;;4967179;28;20533;-76
2022/02/03 11:07:48;;;;;;;1.65;1.38;;;10.90;99.90;;;;;;4986927;28;20042;-76
2022/02/03 11:09:59;;;;;;;2.70;1.30;;;10.70;99.90;;;;;;4978599;28;20414;-77
2022/02/03 11:12:28;;;;;;;4.68;1.00;;;10.80;99.90;;;;;;4992046;28;20405;-78
2022/02/03 11:14:54;;;;;;;2.70;1.10;;;11.10;99.90;;;;;;4977250;28;20062;-76
2022/02/03 11:17:20;;;;;;;2.15;1.00;;;11.10;99.90;;;;;;4973704;28;20478;-76
2022/02/03 11:19:49;;;;;;;1.15;0.90;;;11.00;99.90;;;;;;4978747;28;20022;-77
2022/02/03 11:22:21;;;;;;;2.50;1.35;;;10.90;99.90;;;;;;4985868;28;20050;-75
2022/02/03 11:24:56;;;;;;;1.38;1.05;;;10.90;99.90;;;;;;4985111;28;20042;-77
2022/02/03 11:27:35;;;;;;;0.90;0.90;;;10.80;99.90;;;;;;4984427;28;20303;-77
2022/02/03 11:33:35;;;;;;;1.08;0.98;;;10.70;99.90;;;;;;4988958;28;20082;-77
2022/02/03 11:58:04;;;;;;;3.60;0.95;;;11.70;99.90;;;;;;4981195;28;20086;-77
2022/02/03 12:03:25;;;;;;;1.85;0.90;;;11.40;99.90;;;;;;4969140;28;20110;-77
2022/02/03 12:06:38;;;;;;;1.65;1.10;;;11.40;99.90;;;;;;4966611;28;20467;-75
2022/02/03 12:20:29;;;;;;;3.17;1.50;;;11.40;99.90;;;;;;4967445;28;20094;-76
2022/02/03 12:25:46;;;;;;;1.83;1.42;;;11.20;99.90;;;;;;4973564;28;20542;-75
2022/02/03 12:38:50;;;;;;;2.75;1.15;;;11.80;99.90;;;;;;4973336;28;20030;-77
2022/02/03 12:41:22;;;;;;;4.97;1.30;;;11.70;99.90;;;;;;4985673;28;20023;-77
2022/02/03 12:43:59;;;;;;;0.98;0.90;;;11.80;99.90;;;;;;4986701;28;20027;-79
2022/02/03 12:46:27;;;;;;;1.35;1.15;;;11.60;99.90;;;;;;4976156;28;20031;-77
2022/02/03 12:48:59;;;;;;;2.28;1.30;;;11.60;99.90;;;;;;4979006;28;20039;-78
2022/02/03 12:51:27;;;;;;;1.08;0.80;;;11.70;99.90;;;;;;4969027;28;20027;-79
2022/02/03 12:53:53;;;;;;;1.30;1.10;;;11.70;99.90;;;;;;4972906;28;20081;-77
2022/02/03 12:56:22;;;;;;;1.17;0.88;;;11.90;99.90;;;;;;4993996;28;20033;-78
2022/02/03 12:58:53;;;;;;;1.25;1.15;;;12.10;99.90;;;;;;4969751;28;20050;-75
2022/02/03 13:01:28;;;;;;;0.98;0.90;;;12.20;99.90;;;;;;4966688;28;20081;-76
2022/02/03 13:03:54;;;;;;;1.23;1.13;;;12.00;99.90;;;;;;4973163;28;20035;-74
2022/02/03 13:06:26;;;;;;;1.05;0.90;;;11.80;99.90;;;;;;4988108;28;20031;-76
2022/02/03 13:08:56;;;;;;;2.85;1.58;;;11.70;99.90;;;;;;4966164;28;20063;-73
2022/02/03 13:11:39;;;;;;;2.88;0.85;;;11.60;99.90;;;;;;4972451;28;20026;-76
2022/02/03 13:14:30;;;;;;;0.90;0.90;;;11.60;99.90;;;;;;4970013;28;20506;-77
2022/02/03 13:17:09;;;;;;;6.70;1.05;;;11.40;99.90;;;;;;4991765;28;20058;-75
2022/02/03 13:19:56;;;;;;;1.27;0.77;;;11.40;99.90;;;;;;4976678;28;20023;-76
2022/02/03 13:22:42;;;;;;;1.92;1.10;;;11.40;99.90;;;;;;4962943;28;20031;-78
2022/02/03 13:25:28;;;;;;;1.42;1.33;;;11.30;99.90;;;;;;4992982;28;20050;-79
2022/02/03 13:28:27;;;;;;;1.38;1.15;;;11.50;99.90;;;;;;4987808;28;20391;-80
2022/02/03 13:30:56;;;;;;;1.83;1.27;;;11.40;99.90;;;;;;4985436;28;20026;-78
2022/02/03 13:33:51;;;;;;;2.72;1.00;;;11.40;99.90;;;;;;4987717;28;20162;-79
2022/02/03 13:36:18;;;;;;;2.05;0.98;;;11.40;99.90;;;;;;4987626;28;20082;-76
2022/02/03 13:39:10;;;;;;;1.33;0.90;;;11.40;99.90;;;;;;4979357;28;20019;-78
2022/02/03 13:41:40;;;;;;;1.20;1.00;;;11.20;99.90;;;;;;4983937;28;20015;-77
2022/02/03 13:44:08;;;;;;;1.48;1.10;;;11.20;99.90;;;;;;4985545;28;20031;-79
2022/02/03 13:46:39;;;;;;;1.75;1.00;;;11.30;99.90;;;;;;4985729;28;20019;-77
2022/02/03 13:49:13;;;;;;;4.45;1.25;;;11.50;99.90;;;;;;4988740;28;20027;-79
2022/02/03 13:51:40;;;;;;;3.45;1.20;;;11.50;99.90;;;;;;4981014;28;20368;-79
2022/02/03 14:10:29;;;;;;;2.50;1.02;;;11.50;99.90;;;;;;4987014;28;20031;-80
2022/02/03 14:12:28;;;;;;;0.98;0.88;;;11.30;99.90;;;;;;4977827;28;20046;-78
2022/02/03 14:22:08;;;;;;;1.88;1.20;;;11.50;99.90;;;;;;4992152;28;20055;-78
2022/02/03 14:29:50;;;;;;;2.70;1.70;;;11.30;99.90;;;;;;4990240;28;20045;-77
2022/02/03 14:32:26;;;;;;;5.38;1.88;;;11.20;99.90;;;;;;4986522;28;20042;-77
2022/02/03 14:34:52;;;;;;;1.40;1.10;;;11.20;99.90;;;;;;4984487;28;20027;-78
2022/02/03 14:37:40;;;;;;;1.67;1.40;;;11.10;99.90;;;;;;4981341;28;20046;-79
2022/02/03 14:42:38;;;;;;;2.45;1.50;;;11.10;99.90;;;;;;4988558;28;20029;-79
2022/02/03 14:45:05;;;;;;;2.92;2.20;;;11.00;99.90;;;;;;4986352;28;20110;-78
2022/02/03 14:47:32;;;;;;;3.38;1.60;;;11.00;99.90;;;;;;4987853;28;20023;-79
2022/02/03 14:50:01;;;;;;;1.73;1.45;;;11.00;99.90;;;;;;4994788;28;20023;-77
2022/02/03 14:52:32;;;;;;;1.52;1.42;;;11.00;99.90;;;;;;4996584;28;20605;-81
2022/02/03 15:00:28;;;;;;;1.92;1.40;;;11.00;99.90;;;;;;4987795;28;20042;-79
2022/02/03 15:02:54;;;;;;;1.85;1.48;;;10.90;99.90;;;;;;4988008;28;20047;-79
2022/02/03 15:05:53;;;;;;;1.77;1.27;;;10.80;99.90;;;;;;4988844;28;20023;-78
2022/02/03 15:08:33;;;;;;;2.25;1.35;;;10.80;99.90;;;;;;4982071;28;20122;-77
2022/02/03 15:11:09;;;;;;;1.92;1.60;;;10.80;99.90;;;;;;4983399;28;20041;-77
2022/02/03 15:13:41;;;;;;;2.10;1.50;;;10.90;99.90;;;;;;4985004;28;20029;-75
2022/02/03 15:16:08;;;;;;;3.63;1.60;;;10.80;99.90;;;;;;4986543;28;20556;-77
2022/02/03 15:18:35;;;;;;;1.50;1.23;;;10.70;99.90;;;;;;4989561;28;20019;-77
2022/02/03 15:21:01;;;;;;;3.95;1.40;;;10.70;99.90;;;;;;4989256;28;20035;-78
2022/02/03 15:23:27;;;;;;;1.83;1.48;;;10.60;99.90;;;;;;4985343;28;20079;-76
2022/02/03 15:25:52;;;;;;;2.15;1.67;;;10.50;99.90;;;;;;4988374;28;20062;-78
2022/02/03 15:28:19;;;;;;;2.28;1.80;;;10.50;99.90;;;;;;4987588;28;20019;-77
2022/02/03 15:30:45;;;;;;;2.97;1.40;;;10.50;99.90;;;;;;4986333;28;20023;-78
2022/02/03 15:33:11;;;;;;;3.60;1.80;;;10.40;99.90;;;;;;4982446;28;20042;-78
2022/02/03 15:35:46;;;;;;;3.00;1.65;;;10.40;99.90;;;;;;4980990;28;20019;-78
2022/02/03 15:38:20;;;;;;;1.70;1.30;;;10.40;99.90;;;;;;4985527;28;20030;-78
2022/02/03 15:40:47;;;;;;;4.60;1.92;;;10.30;99.90;;;;;;4991304;28;20050;-79
2022/02/03 15:43:37;;;;;;;2.65;1.85;;;10.30;99.90;;;;;;4984980;28;20038;-78
2022/02/03 15:46:02;;;;;;;1.98;1.73;;;10.30;99.90;;;;;;4981743;28;20034;-78
2022/02/03 15:48:44;;;;;;;2.47;1.67;;;10.20;99.90;;;;;;4972374;28;20031;-78
2022/02/03 16:02:48;;;;;;;2.70;1.33;;;9.90;99.90;;;;;;4983735;28;20027;-77
2022/02/03 16:17:02;;;;;;;2.67;1.90;;;9.60;99.90;;;;;;4971842;28;20052;-76
2022/02/03 16:18:53;;;;;;;1.52;1.40;;;9.50;99.90;;;;;;4965724;28;20099;-78
2022/02/03 16:21:26;;;;;;;3.35;1.50;;;9.50;99.90;;;;;;4985963;28;20450;-75
2022/02/03 16:50:58;;;;;;;2.28;1.67;;;9.20;99.90;;;;;;4979741;28;20041;-77
2022/02/03 16:53:23;;;;;;;;;;;9.10;99.90;;;;;;4977381;28;20043;-77
2022/02/03 16:55:49;;;;;;;8.60;1.98;;;9.10;99.90;;;;;;4978790;28;19914;-75
2022/02/03 16:58:15;;;;;;;3.75;1.80;;;9.10;99.90;;;;;;4983342;28;20022;-77
2022/02/03 17:00:43;;;;;;;2.90;1.92;;;9.00;99.90;;;;;;4973707;28;20028;-76
2022/02/03 17:03:09;;;;;;;5.05;2.47;;;8.90;99.90;;;;;;4971040;28;20023;-75
2022/02/03 17:05:37;;;;;;;2.08;1.70;;;8.90;99.90;;;;;;4978328;28;20026;-76
2022/02/03 17:08:07;;;;;;;2.60;2.08;;;8.90;99.90;;;;;;4977249;28;20023;-76
2022/02/03 17:10:33;;;;;;;3.65;2.08;;;8.80;99.90;;;;;;4977988;28;20028;-77
2022/02/03 17:12:59;;;;;;;2.40;2.20;;;8.80;99.90;;;;;;4980584;28;20027;-78
2022/02/03 17:15:25;;;;;;;2.13;1.92;;;8.80;99.90;;;;;;4979156;28;20019;-76
2022/02/03 17:17:51;;;;;;;6.75;5.28;;;8.70;99.90;;;;;;4978939;28;20293;-75
2022/02/03 17:20:23;;;;;;;5.13;2.85;;;8.70;99.90;;;;;;4975617;28;20031;-77
2022/02/03 17:22:51;;;;;;;4.72;2.88;;;8.70;99.90;;;;;;4978072;28;20031;-77
2022/02/03 17:25:24;;;;;;;6.43;3.78;;;8.70;99.90;;;;;;4977251;28;20027;-76
2022/02/03 17:28:00;;;;;;;5.25;4.03;;;8.70;99.90;;;;;;4982068;28;20027;-78
2022/02/03 17:30:42;;;;;;;5.95;3.05;;;8.60;99.90;;;;;;4988709;28;20030;-80
2022/02/03 17:53:11;;;;;;;5.10;3.70;;;8.40;99.90;;;;;;4983351;28;20493;-78
2022/02/03 18:04:21;;;;;;;4.97;4.18;;;8.50;99.90;;;;;;4989480;28;20090;-77
2022/02/03 18:09:13;;;;;;;4.63;4.05;;;8.40;99.90;;;;;;4989384;28;20029;-78
2022/02/03 18:17:31;;;;;;;5.88;4.43;;;8.30;99.90;;;;;;4959343;28;20030;-76
2022/02/03 18:31:28;;;;;;;8.68;5.60;;;8.10;99.90;;;;;;4986534;28;20043;-76
2022/02/03 18:34:27;;;;;;;8.50;5.75;;;8.10;99.90;;;;;;4991532;28;20066;-78
2022/02/03 18:52:55;;;;;;;8.63;6.25;;;8.00;99.90;;;;;;4982918;28;20018;-78
2022/02/03 20:07:21;;;;;;;10.70;9.45;;;7.20;99.90;;;;;;4986041;28;20031;-78
2022/02/03 20:12:30;;;;;;;11.07;9.18;;;7.20;99.90;;;;;;4988968;28;20033;-79
2022/02/03 20:14:57;;;;;;;8.60;7.80;;;7.20;99.90;;;;;;4991845;28;20038;-78
2022/02/03 20:17:23;;;;;;;8.63;7.30;;;7.10;99.90;;;;;;4981068;28;20018;-79
2022/02/03 20:19:49;;;;;;;9.23;8.35;;;7.10;99.90;;;;;;4983124;28;20027;-78
2022/02/03 20:22:17;;;;;;;12.32;11.00;;;7.10;99.90;;;;;;4975664;28;20023;-79
2022/02/03 20:24:43;;;;;;;8.93;7.93;;;7.10;99.90;;;;;;4978572;28;20019;-78
2022/02/03 20:27:08;;;;;;;9.02;8.13;;;7.00;99.90;;;;;;4985283;28;20034;-79
2022/02/03 20:29:34;;;;;;;8.23;7.43;;;7.00;99.90;;;;;;4981687;28;20022;-77
2022/02/03 20:32:00;;;;;;;12.18;10.52;;;7.00;99.90;;;;;;4977917;28;20027;-76
2022/02/03 20:34:26;;;;;;;9.60;8.70;;;6.90;99.90;;;;;;4980180;28;20018;-77
2022/02/03 20:36:52;;;;;;;13.77;8.85;;;6.90;99.90;;;;;;4970212;28;20451;-78
2022/02/03 20:39:18;;;;;;;9.90;8.90;;;6.80;99.90;;;;;;4979907;28;20019;-78
2022/02/03 20:41:43;;;;;;;10.48;9.40;;;6.90;99.90;;;;;;4986836;28;20030;-79
2022/02/03 20:44:09;;;;;;;12.35;10.20;;;6.90;99.90;;;;;;4979024;28;20415;-81
2022/02/03 20:46:36;;;;;;;20.23;10.68;;;6.80;99.90;;;;;;4987497;28;20015;-78
2022/02/03 20:49:02;;;;;;;16.42;11.07;;;6.80;99.90;;;;;;4989313;28;20041;-77
2022/02/03 20:51:29;;;;;;;14.65;10.57;;;6.80;99.90;;;;;;4988100;28;20439;-77
2022/02/03 20:53:55;;;;;;;13.35;10.30;;;6.90;99.90;;;;;;4987124;28;20364;-79
2022/02/03 20:56:22;;;;;;;12.90;10.60;;;6.90;99.90;;;;;;4981435;28;20061;-76
2022/02/03 20:58:49;;;;;;;12.30;10.05;;;6.90;99.90;;;;;;4995622;28;20109;-77
2022/02/03 21:01:29;;;;;;;11.93;10.05;;;7.00;99.90;;;;;;4983972;28;20030;-77
2022/02/03 21:04:02;;;;;;;9.95;8.95;;;7.00;99.90;;;;;;4981258;28;20038;-79
2022/02/03 21:06:28;;;;;;;11.23;9.98;;;7.00;99.90;;;;;;4990188;28;20026;-77
2022/02/03 21:08:54;;;;;;;10.23;9.23;;;7.00;99.90;;;;;;4985685;28;21804;-79
2022/02/03 21:11:19;;;;;;;11.05;9.95;;;7.00;99.90;;;;;;4985254;28;20058;-80
2022/02/03 21:13:45;;;;;;;9.10;8.20;;;7.00;99.90;;;;;;4991036;28;20015;-78
2022/02/03 21:16:13;;;;;;;11.57;10.07;;;7.00;99.90;;;;;;4997409;28;20043;-77
2022/02/03 21:18:41;;;;;;;10.25;8.98;;;7.00;99.90;;;;;;4997497;28;20019;-78
2022/02/03 21:21:21;;;;;;;11.38;9.02;;;7.00;99.90;;;;;;4990902;28;20031;-80
2022/02/03 21:23:47;;;;;;;9.32;8.30;;;6.90;99.90;;;;;;4990695;28;20071;-81
2022/02/03 21:26:18;;;;;;;11.18;10.07;;;6.90;99.90;;;;;;4990991;28;20026;-78
2022/02/03 21:28:47;;;;;;;;;;;6.80;99.90;;;;;;4990249;28;20046;-77
2022/02/03 21:31:14;;;;;;;11.68;8.88;;;6.80;99.90;;;;;;4988784;28;19914;-79
2022/02/03 21:33:48;;;;;;;10.30;9.15;;;6.70;99.90;;;;;;4967709;28;20081;-78
2022/02/03 21:36:19;;;;;;;9.73;8.77;;;6.70;99.90;;;;;;4992020;28;20088;-81
2022/02/03 21:38:44;;;;;;;10.88;9.77;;;6.60;99.90;;;;;;4989676;28;20026;-79
2022/02/03 21:41:11;;;;;;;10.93;9.18;;;6.60;99.90;;;;;;4977860;28;20034;-78
2022/02/03 21:43:37;;;;;;;12.73;9.60;;;6.60;99.90;;;;;;4984832;28;20046;-78
2022/02/03 21:46:04;;;;;;;9.38;8.30;;;6.60;99.90;;;;;;4987829;28;20026;-78
2022/02/03 21:48:30;;;;;;;10.18;8.75;;;6.60;99.90;;;;;;4989069;28;20109;-78
2022/02/03 21:50:59;;;;;;;10.82;8.77;;;6.60;99.90;;;;;;4994363;28;20038;-77
2022/02/03 21:53:30;;;;;;;9.25;7.80;;;6.60;99.90;;;;;;4990207;28;20026;-77
2022/02/03 21:55:56;;;;;;;9.13;7.97;;;6.60;99.90;;;;;;4986659;28;20021;-77
2022/02/03 21:58:25;;;;;;;11.18;7.22;;;6.60;99.90;;;;;;4992416;28;20097;-77
2022/02/03 22:00:54;;;;;;;8.70;7.70;;;6.70;99.90;;;;;;4986743;28;20507;-77
2022/02/03 22:03:20;;;;;;;11.82;8.27;;;6.70;99.90;;;;;;4987047;28;20026;-77
2022/02/03 22:05:46;;;;;;;8.95;6.85;;;6.60;99.90;;;;;;4982245;28;20033;-78
2022/02/03 22:08:12;;;;;;;9.07;7.35;;;6.70;99.90;;;;;;4980950;28;20105;-76
2022/02/03 22:10:37;;;;;;;8.38;7.55;;;6.70;99.90;;;;;;4987781;28;20018;-76
2022/02/03 22:13:03;;;;;;;9.07;8.18;;;6.60;99.90;;;;;;4991804;28;20023;-79
2022/02/03 22:15:29;;;;;;;8.77;7.93;;;6.60;99.90;;;;;;4986338;28;20019;-80
2022/02/03 22:17:55;;;;;;;8.38;7.57;;;6.60;99.90;;;;;;4988185;28;20034;-78
2022/02/03 22:20:28;;;;;;;8.88;7.43;;;6.70;99.90;;;;;;4979963;28;20545;-78
2022/02/03 22:28:24;;;;;;;8.48;6.53;;;6.70;99.90;;;;;;4997157;28;20099;-77
2022/02/03 22:45:48;;;;;;;8.38;7.05;;;6.60;99.90;;;;;;5005420;28;20049;-76
2022/02/03 22:50:07;;;;;;;9.38;7.82;;;6.60;99.90;;;;;;5006229;28;20110;-74
2022/02/03 22:52:33;;;;;;;8.85;7.82;;;6.60;99.90;;;;;;5005969;28;20019;-76
2022/02/03 22:54:59;;;;;;;7.68;6.93;;;6.60;99.90;;;;;;5000266;28;20022;-77
2022/02/03 22:57:25;;;;;;;9.80;7.95;;;6.60;99.90;;;;;;5015687;28;20026;-76
2022/02/03 23:00:14;;;;;;;8.57;7.60;;;6.70;99.90;;;;;;5016435;28;20085;-77
2022/02/03 23:02:42;;;;;;;14.00;10.27;;;6.70;99.90;;;;;;5003811;28;20031;-76
2022/02/03 23:05:09;;;;;;;10.68;9.68;;;6.70;99.90;;;;;;4997398;28;20061;-75
2022/02/03 23:07:39;;;;;;;9.27;8.38;;;6.70;99.90;;;;;;4992594;28;20418;-75
2022/02/03 23:12:54;;;;;;;11.50;10.40;;;6.80;99.90;;;;;;4994916;28;20037;-75
2022/02/03 23:15:44;;;;;;;11.52;10.32;;;6.80;99.90;;;;;;4994542;28;20049;-76
2022/02/03 23:18:26;;;;;;;11.30;10.10;;;6.80;99.90;;;;;;4993709;28;20022;-77
2022/02/03 23:23:36;;;;;;;10.95;9.95;;;6.90;99.90;;;;;;4996657;28;20029;-74
2022/02/03 23:26:02;;;;;;;10.77;9.68;;;7.00;99.90;;;;;;4996430;28;20030;-77
2022/02/03 23:28:31;;;;;;;10.82;9.30;;;7.00;99.90;;;;;;4994890;28;20101;-75
2022/02/03 23:30:57;;;;;;;11.23;10.13;;;7.10;99.90;;;;;;5007678;28;20033;-75
2022/02/03 23:33:23;;;;;;;12.18;10.88;;;7.10;99.90;;;;;;4995096;28;20046;-75
2022/02/03 23:35:49;;;;;;;12.38;9.27;;;7.20;99.90;;;;;;4995354;28;20018;-75
2022/02/03 23:38:48;;;;;;;10.52;9.63;;;7.20;99.90;;;;;;4996322;28;20023;-75